Time;durP1;ratioP1;P1;durP2;ratioP2;P2;SDS_P1;SDS_P2;PMS_P1;PMS_P2;Temp;Humidity;BMP_temperature;BMP_pressure;BME280_temperature;BME280_humidity;BME280_pressure;Samples;Min_cycle;Max_cycle;Signal;HPM_P1;HPM_P2
2021/07/15 00:01:53;;;;;;;6.57;2.93;;;;;;;22.20;100.00;100254.52;1731776;81;21112;-67
2021/07/15 00:04:21;;;;;;;8.57;3.53;;;;;;;22.05;100.00;100253.39;1742860;80;20991;-61
2021/07/15 00:06:49;;;;;;;8.13;3.63;;;;;;;22.13;100.00;100251.30;1730474;82;22432;-61
2021/07/15 00:09:17;;;;;;;8.47;4.00;;;;;;;22.22;100.00;100256.40;1721231;81;22469;-67
2021/07/15 00:11:46;;;;;;;7.93;3.47;;;;;;;22.15;100.00;100253.98;1736281;82;21105;-69
2021/07/15 00:14:18;;;;;;;8.38;3.30;;;;;;;21.90;100.00;100248.55;1735833;81;20979;-61
2021/07/15 00:16:57;;;;;;;9.50;4.73;;;;;;;21.87;100.00;100251.17;1733392;81;22343;-62
2021/07/15 00:19:27;;;;;;;8.53;4.33;;;;;;;21.86;100.00;100250.91;1734087;82;21578;-67
2021/07/15 00:21:55;;;;;;;9.43;4.20;;;;;;;21.84;100.00;100252.48;1752225;80;21026;-68
2021/07/15 00:24:22;;;;;;;11.67;5.30;;;;;;;21.79;100.00;100252.47;1750842;81;20998;-65
2021/07/15 00:26:52;;;;;;;10.90;6.40;;;;;;;21.83;100.00;100252.22;1732897;81;20962;-66
2021/07/15 00:29:21;;;;;;;15.03;8.03;;;;;;;21.74;100.00;100257.72;1734587;81;21149;-67
2021/07/15 00:31:49;;;;;;;15.63;10.30;;;;;;;21.74;100.00;100256.93;1733995;82;20974;-67
2021/07/15 00:34:16;;;;;;;15.67;9.57;;;;;;;21.70;100.00;100261.16;1730954;82;21122;-61
2021/07/15 00:36:42;;;;;;;18.23;10.63;;;;;;;21.84;100.00;100254.34;1733592;81;20963;-61
2021/07/15 00:39:09;;;;;;;16.60;10.07;;;;;;;21.80;100.00;100252.73;1751999;81;21040;-67
2021/07/15 00:41:36;;;;;;;22.03;9.97;;;;;;;21.60;100.00;100261.37;1751598;81;20990;-67
2021/07/15 00:44:03;;;;;;;18.90;9.20;;;;;;;21.74;100.00;100255.60;1733757;82;21152;-67
2021/07/15 00:46:31;;;;;;;18.57;9.90;;;;;;;21.73;100.00;100259.31;1732945;81;21547;-67
2021/07/15 00:48:57;;;;;;;19.20;8.43;;;;;;;21.68;100.00;100260.09;1753357;80;21060;-67
2021/07/15 00:51:26;;;;;;;14.93;6.03;;;;;;;21.65;100.00;100263.25;1727509;82;21059;-68
2021/07/15 00:53:53;;;;;;;11.60;6.93;;;;;;;21.66;100.00;100260.86;1735144;82;20923;-67
2021/07/15 00:56:20;;;;;;;9.90;6.10;;;;;;;21.50;100.00;100253.87;1727762;82;21812;-63
2021/07/15 00:58:49;;;;;;;12.43;6.43;;;;;;;21.60;100.00;100260.05;1721943;82;21077;-67
2021/07/15 01:01:15;;;;;;;10.33;6.00;;;;;;;21.71;100.00;100255.61;1735775;82;20977;-67
2021/07/15 01:03:42;;;;;;;12.07;5.90;;;;;;;21.51;100.00;100256.26;1736445;80;22069;-68
2021/07/15 01:06:11;;;;;;;13.53;7.23;;;;;;;21.73;100.00;100263.30;1736224;82;21033;-63
2021/07/15 01:08:38;;;;;;;13.00;7.43;;;;;;;21.84;100.00;100258.32;1733099;81;21213;-69
2021/07/15 01:11:46;;;;;;;11.73;7.53;;;;;;;21.95;100.00;100252.55;1736052;81;20928;-68
2021/07/15 01:14:17;;;;;;;13.27;8.00;;;;;;;21.89;100.00;100257.55;1733279;82;21026;-62
2021/07/15 01:16:49;;;;;;;15.23;7.80;;;;;;;21.97;100.00;100249.91;1704773;83;21040;-68
2021/07/15 01:19:57;;;;;;;15.40;7.77;;;;;;;21.92;100.00;100255.70;1732550;82;20966;-68
2021/07/15 01:23:04;;;;;;;13.63;7.23;;;;;;;21.74;100.00;100252.95;1734494;81;21203;-69
2021/07/15 01:25:54;;;;;;;11.20;7.20;;;;;;;21.80;100.00;100254.05;1734280;81;20978;-67
2021/07/15 01:28:49;;;;;;;19.30;6.93;;;;;;;21.66;100.00;100252.91;1732674;82;20888;-67
2021/07/15 01:31:17;;;;;;;13.50;6.67;;;;;;;21.49;100.00;100253.08;1691507;84;20926;-67
2021/07/15 01:33:44;;;;;;;13.60;8.20;;;;;;;21.34;100.00;100252.97;1734514;82;21021;-67
2021/07/15 01:36:13;;;;;;;16.17;7.37;;;;;;;21.43;100.00;100253.29;1751561;80;21097;-68
2021/07/15 01:38:42;;;;;;;12.53;7.83;;;;;;;21.38;100.00;100256.71;1721573;82;20987;-68
2021/07/15 01:41:25;;;;;;;14.67;8.33;;;;;;;21.53;100.00;100254.16;1703556;83;21008;-68
2021/07/15 01:43:56;;;;;;;15.37;7.13;;;;;;;21.53;100.00;100258.14;1735846;81;20974;-63
2021/07/15 01:46:22;;;;;;;14.40;7.08;;;;;;;21.41;100.00;100262.84;1695964;83;21113;-69
2021/07/15 01:48:50;;;;;;;16.30;7.60;;;;;;;21.40;100.00;100263.87;1708226;83;21156;-66
2021/07/15 01:51:16;;;;;;;12.33;7.03;;;;;;;21.45;100.00;100259.95;1736374;82;21477;-67
2021/07/15 01:53:43;;;;;;;10.57;6.57;;;;;;;21.43;100.00;100262.04;1737153;81;20876;-61
2021/07/15 01:56:10;;;;;;;13.53;5.77;;;;;;;21.62;100.00;100261.11;1734971;81;22413;-66
2021/07/15 01:58:38;;;;;;;8.50;5.60;;;;;;;21.50;100.00;100261.83;1735856;81;21414;-68
2021/07/15 02:01:07;;;;;;;10.70;6.10;;;;;;;21.51;100.00;100261.56;1731434;81;21301;-68
2021/07/15 02:03:34;;;;;;;10.17;6.00;;;;;;;21.43;100.00;100263.36;1734294;81;21525;-67
2021/07/15 02:06:01;;;;;;;9.47;5.83;;;;;;;21.42;100.00;100261.78;1704570;83;20918;-68
2021/07/15 02:08:27;;;;;;;9.17;5.93;;;;;;;21.86;100.00;100262.86;1733691;82;21016;-67
2021/07/15 02:10:55;;;;;;;11.27;5.17;;;;;;;22.13;100.00;100261.92;1734657;81;20919;-68
2021/07/15 02:13:24;;;;;;;10.97;5.43;;;;;;;22.38;100.00;100262.02;1753160;81;20942;-68
2021/07/15 02:15:50;;;;;;;9.33;5.13;;;;;;;22.70;100.00;100267.70;1726055;82;21036;-67
2021/07/15 02:18:21;;;;;;;8.67;4.97;;;;;;;23.09;100.00;100261.92;1696418;83;20968;-61
2021/07/15 02:20:51;;;;;;;10.90;5.05;;;;;;;23.53;100.00;100257.64;1736486;82;22169;-67
2021/07/15 02:23:19;;;;;;;9.93;5.25;;;;;;;24.09;100.00;100258.55;1723723;81;20903;-68
2021/07/15 02:25:49;;;;;;;11.53;5.27;;;;;;;24.67;100.00;100252.17;1730123;81;22093;-65
2021/07/15 02:28:17;;;;;;;8.47;4.43;;;;;;;25.38;100.00;100255.64;1734175;80;20979;-66
2021/07/15 02:30:45;;;;;;;7.97;5.23;;;;;;;25.73;100.00;100249.13;1736850;82;22092;-68
2021/07/15 02:33:14;;;;;;;10.27;6.10;;;;;;;25.99;100.00;100252.06;1712521;82;21540;-67
2021/07/15 02:35:44;;;;;;;10.67;5.40;;;;;;;26.59;100.00;100246.47;1736731;81;21620;-67
2021/07/15 02:38:14;;;;;;;10.53;4.55;;;;;;;27.15;100.00;100242.95;1736430;81;21924;-61
2021/07/15 02:40:40;;;;;;;9.20;4.50;;;;;;;27.83;100.00;100242.80;1733284;82;20926;-67
2021/07/15 02:43:07;;;;;;;7.80;4.67;;;;;;;28.42;100.00;100244.83;1705733;82;20904;-68
2021/07/15 02:45:34;;;;;;;8.17;5.20;;;;;;;29.12;100.00;100238.88;1752715;80;20919;-68
2021/07/15 02:48:01;;;;;;;9.70;4.77;;;;;;;29.52;100.00;100236.23;1751890;80;22229;-69
2021/07/15 02:50:29;;;;;;;10.03;5.03;;;;;;;30.00;98.90;100238.94;1732912;81;20982;-69
2021/07/15 02:52:57;;;;;;;9.23;5.83;;;;;;;30.50;90.05;100240.43;1736559;81;20946;-69
2021/07/15 02:55:24;;;;;;;8.73;5.35;;;;;;;31.06;80.89;100240.52;1752851;80;20983;-67
2021/07/15 02:58:16;;;;;;;8.90;4.95;;;;;;;31.55;72.15;100243.14;1732613;80;21062;-67
2021/07/15 03:01:01;;;;;;;9.70;4.85;;;;;;;31.69;68.70;100242.94;1730477;78;26517;-68
2021/07/15 03:03:56;;;;;;;9.53;5.03;;;;;;;32.15;62.86;100240.69;1724614;81;21237;-62
2021/07/15 03:06:41;;;;;;;13.93;5.00;;;;;;;32.48;59.09;100236.52;1726392;82;20895;-67
2021/07/15 03:09:16;;;;;;;9.80;5.15;;;;;;;32.81;55.32;100237.31;1724804;81;22532;-69
2021/07/15 03:12:09;;;;;;;8.20;4.75;;;;;;;33.17;52.21;100235.84;1702719;83;21123;-69
2021/07/15 03:14:38;;;;;;;7.75;4.53;;;;;;;33.54;50.38;100235.34;1726382;81;21043;-65
2021/07/15 03:17:10;;;;;;;9.13;4.85;;;;;;;34.03;48.00;100238.02;1726269;81;40035;-65
2021/07/15 03:19:39;;;;;;;8.90;4.50;;;;;;;34.94;44.02;100244.23;1700014;83;21067;-67
2021/07/15 03:22:08;;;;;;;;;;;;;;;34.94;44.02;100244.23;1689124;84;21568;-61
2021/07/15 03:24:42;;;;;;;11.73;5.50;;;;;;;35.46;42.28;100246.48;1689620;84;20357;-60
2021/07/15 03:27:09;;;;;;;9.13;5.47;;;;;;;35.73;41.18;100244.84;1719442;82;21121;-67
2021/07/15 03:29:37;;;;;;;9.15;5.08;;;;;;;34.70;43.52;100241.63;1714436;83;20998;-66
2021/07/15 03:32:06;;;;;;;8.93;4.70;;;;;;;35.55;41.99;100233.00;1736184;82;20888;-63
2021/07/15 03:34:33;;;;;;;11.08;5.28;;;;;;;35.97;40.67;100236.44;1690084;84;21038;-61
2021/07/15 03:37:03;;;;;;;7.17;4.17;;;;;;;36.11;39.98;100236.58;1720329;83;20948;-67
2021/07/15 03:39:31;;;;;;;10.03;4.78;;;;;;;36.86;38.76;100230.67;1685251;83;21039;-68
2021/07/15 03:41:58;;;;;;;10.85;4.87;;;;;;;36.30;39.43;100233.86;1714487;82;21151;-61
2021/07/15 03:44:26;;;;;;;6.22;4.20;;;;;;;37.43;37.24;100230.30;1733651;82;21058;-67
2021/07/15 03:46:54;;;;;;;9.83;4.55;;;;;;;37.04;37.09;100231.57;1719124;83;21061;-68
2021/07/15 03:49:23;;;;;;;10.38;4.72;;;;;;;37.94;36.13;100231.81;1722309;82;20984;-68
2021/07/15 03:51:50;;;;;;;8.70;4.72;;;;;;;38.55;34.85;100228.47;1721588;82;21465;-69
2021/07/15 03:54:19;;;;;;;5.67;3.90;;;;;;;38.88;34.09;100235.83;1720735;81;21146;-61
2021/07/15 03:56:47;;;;;;;9.10;4.40;;;;;;;39.27;33.18;100236.17;1734999;82;21576;-65
2021/07/15 03:59:15;;;;;;;8.08;4.28;;;;;;;39.59;32.51;100236.95;1719755;83;21098;-69
2021/07/15 04:01:43;;;;;;;7.97;4.30;;;;;;;40.01;32.06;100230.20;1724800;82;21510;-69
2021/07/15 04:04:10;;;;;;;8.13;4.25;;;;;;;40.50;30.93;100237.81;1683638;83;21054;-67
2021/07/15 04:06:37;;;;;;;12.80;4.30;;;;;;;40.85;30.20;100232.22;1717964;83;21051;-64
2021/07/15 04:09:08;;;;;;;9.58;4.47;;;;;;;40.99;29.51;100230.89;1677083;83;21477;-70
2021/07/15 04:11:36;;;;;;;6.12;4.17;;;;;;;41.28;29.16;100235.73;1710747;82;20978;-67
2021/07/15 04:14:07;;;;;;;8.35;3.85;;;;;;;41.47;28.55;100237.89;1712458;82;20935;-66
2021/07/15 04:16:46;;;;;;;;;;;;;;;41.78;28.02;100239.75;1700633;83;21569;-61
2021/07/15 04:19:13;;;;;;;8.40;4.28;;;;;;;41.98;27.80;100246.20;1706093;82;21137;-67
2021/07/15 04:21:42;;;;;;;8.98;6.45;;;;;;;42.15;27.57;100249.43;1721800;83;21011;-67
2021/07/15 04:24:09;;;;;;;12.70;7.17;;;;;;;42.45;26.89;100245.39;1712368;83;21138;-67
2021/07/15 04:26:36;;;;;;;8.33;5.65;;;;;;;42.59;26.37;100252.16;1714863;82;20932;-62
2021/07/15 04:29:02;;;;;;;10.28;6.47;;;;;;;42.74;26.07;100251.51;1691920;83;21049;-67
2021/07/15 04:31:56;;;;;;;10.78;6.17;;;;;;;42.97;25.99;100248.97;1708001;83;21081;-67
2021/07/15 04:34:23;;;;;;;10.43;5.78;;;;;;;42.58;26.13;100256.06;1679924;83;21019;-62
2021/07/15 04:36:51;;;;;;;10.00;5.08;;;;;;;43.39;25.28;100247.64;1701871;82;21007;-67
2021/07/15 04:39:18;;;;;;;9.60;5.60;;;;;;;43.58;25.05;100252.56;1705972;82;20915;-65
2021/07/15 04:41:44;;;;;;;12.18;5.87;;;;;;;43.74;24.75;100253.97;1708951;82;21484;-65
2021/07/15 04:44:12;;;;;;;8.88;6.42;;;;;;;43.97;24.70;100251.36;1693719;84;21758;-66
2021/07/15 04:46:39;;;;;;;13.85;6.12;;;;;;;44.23;24.62;100262.81;1683111;83;20925;-64
2021/07/15 04:49:07;;;;;;;8.88;6.50;;;;;;;44.23;24.62;100262.81;1712904;82;22108;-65
2021/07/15 04:51:40;;;;;;;12.50;6.08;;;;;;;44.44;24.24;100265.30;1715834;82;20938;-67
2021/07/15 04:54:07;;;;;;;9.33;5.72;;;;;;;44.81;23.89;100267.10;1752515;80;20987;-65
2021/07/15 04:56:34;;;;;;;14.50;5.92;;;;;;;44.99;23.48;100268.80;1762383;80;21130;-66
2021/07/15 04:59:03;;;;;;;14.30;6.62;;;;;;;45.09;23.37;100271.41;1753556;80;22013;-66
2021/07/15 05:01:32;;;;;;;15.38;7.35;;;;;;;45.07;23.55;100268.28;1751927;81;21032;-66
2021/07/15 05:03:58;;;;;;;10.78;6.10;;;;;;;44.48;24.18;100266.59;1758299;80;21066;-63
2021/07/15 05:06:25;;;;;;;10.65;5.62;;;;;;;44.49;23.96;100268.17;1760059;80;20996;-61
2021/07/15 05:08:51;;;;;;;11.35;5.40;;;;;;;45.69;23.05;100254.20;1767783;80;21394;-67
2021/07/15 05:11:18;;;;;;;9.28;6.28;;;;;;;46.04;22.41;100254.13;1757328;80;22271;-67
2021/07/15 05:13:46;;;;;;;12.70;6.15;;;;;;;46.06;22.16;100245.59;1762303;80;21470;-68
2021/07/15 05:16:13;;;;;;;11.43;6.20;;;;;;;46.02;22.18;100242.12;1757989;81;21610;-67
2021/07/15 05:18:40;;;;;;;10.20;5.17;;;;;;;46.03;22.04;100245.09;1755727;80;21070;-67
2021/07/15 05:21:07;;;;;;;10.23;5.12;;;;;;;46.01;22.34;100237.83;1724116;81;21201;-67
2021/07/15 05:23:33;;;;;;;11.05;5.95;;;;;;;46.20;22.40;100242.36;1703605;82;20971;-67
2021/07/15 05:26:02;;;;;;;12.93;5.43;;;;;;;46.40;22.14;100238.95;1736708;82;21624;-66
2021/07/15 05:28:28;;;;;;;8.98;6.03;;;;;;;46.83;21.75;100231.08;1733307;82;21125;-66
2021/07/15 05:30:57;;;;;;;7.40;5.78;;;;;;;47.21;21.35;100229.14;1760780;80;21499;-68
2021/07/15 05:33:24;;;;;;;11.48;6.12;;;;;;;47.26;21.53;100232.75;1758120;80;21160;-66
2021/07/15 05:35:51;;;;;;;10.32;5.97;;;;;;;47.37;21.14;100233.27;1761046;80;20911;-68
2021/07/15 05:38:18;;;;;;;8.08;5.67;;;;;;;47.51;21.12;100232.07;1752189;80;21034;-62
2021/07/15 05:40:44;;;;;;;10.82;6.30;;;;;;;47.58;21.13;100235.24;1757191;80;21070;-66
2021/07/15 05:43:11;;;;;;;10.63;5.90;;;;;;;47.34;21.29;100237.50;1758169;80;21580;-66
2021/07/15 05:45:38;;;;;;;15.83;6.65;;;;;;;47.07;21.33;100230.90;1758872;80;21158;-67
2021/07/15 05:48:05;;;;;;;9.15;5.50;;;;;;;47.45;20.90;100237.37;1758422;80;20965;-66
2021/07/15 05:50:33;;;;;;;8.00;6.22;;;;;;;47.72;20.66;100238.41;1764094;80;21005;-67
2021/07/15 05:53:01;;;;;;;8.90;5.80;;;;;;;47.16;20.68;100233.80;1756629;80;21148;-66
2021/07/15 05:55:28;;;;;;;8.63;5.47;;;;;;;47.47;19.98;100237.72;1759895;80;21048;-66
2021/07/15 05:57:54;;;;;;;7.78;4.80;;;;;;;47.37;19.68;100233.27;1759059;80;21806;-66
2021/07/15 06:00:21;;;;;;;6.65;5.00;;;;;;;47.31;19.80;100232.20;1757487;80;21009;-63
2021/07/15 06:02:47;;;;;;;7.22;4.50;;;;;;;47.36;19.64;100229.53;1746238;80;20989;-68
2021/07/15 06:05:14;;;;;;;10.93;5.33;;;;;;;47.17;20.18;100232.58;1737519;81;21117;-68
2021/07/15 06:07:40;;;;;;;8.43;5.15;;;;;;;47.21;20.40;100228.53;1739816;81;21062;-67
2021/07/15 06:10:09;;;;;;;9.08;5.75;;;;;;;47.22;20.50;100229.31;1741449;82;21307;-64
2021/07/15 06:12:37;;;;;;;;;;;;;;;47.34;20.78;100229.22;1740349;82;21006;-62
2021/07/15 06:15:05;;;;;;;10.93;6.08;;;;;;;46.16;21.20;100232.02;1741189;82;20157;-68
2021/07/15 06:17:32;;;;;;;7.97;5.00;;;;;;;46.76;20.99;100228.50;1741893;81;21866;-68
2021/07/15 06:20:01;;;;;;;7.33;3.95;;;;;;;47.10;20.19;100227.27;1740455;82;21002;-67
2021/07/15 06:22:29;;;;;;;;;;;;;;;46.80;20.44;100218.14;1744136;81;20971;-67
2021/07/15 06:24:56;;;;;;;6.00;4.58;;;;;;;46.95;20.44;100227.64;1740619;82;20143;-62
2021/07/15 06:27:24;;;;;;;8.68;4.78;;;;;;;46.76;20.20;100218.84;1741904;81;20987;-68
2021/07/15 06:29:51;;;;;;;6.25;4.85;;;;;;;46.71;20.08;100231.76;1743004;82;21129;-66
2021/07/15 06:32:18;;;;;;;6.28;4.97;;;;;;;45.93;20.21;100228.78;1740195;81;21595;-67
2021/07/15 06:34:46;;;;;;;7.58;3.65;;;;;;;47.30;18.68;100222.38;1740374;82;21149;-67
2021/07/15 06:37:14;;;;;;;4.12;3.72;;;;;;;46.25;18.91;100230.23;1740141;82;21477;-67
2021/07/15 06:39:42;;;;;;;5.05;3.85;;;;;;;46.43;18.77;100228.45;1742798;82;21594;-67
2021/07/15 06:42:08;;;;;;;8.03;4.50;;;;;;;46.70;19.03;100228.83;1742251;82;20982;-68
2021/07/15 06:44:35;;;;;;;6.78;4.22;;;;;;;46.67;19.70;100227.70;1741857;82;20911;-68
2021/07/15 06:47:04;;;;;;;5.43;4.93;;;;;;;46.60;19.47;100222.97;1743124;82;21067;-66
2021/07/15 06:49:31;;;;;;;3.72;3.42;;;;;;;47.22;18.65;100219.64;1742441;81;22149;-67
2021/07/15 06:51:57;;;;;;;6.30;3.30;;;;;;;46.30;18.97;100219.33;1741092;81;20900;-68
2021/07/15 06:54:24;;;;;;;8.15;4.55;;;;;;;46.18;19.19;100217.19;1741287;82;20947;-62
2021/07/15 06:56:51;;;;;;;6.35;3.22;;;;;;;45.70;19.50;100218.60;1741991;81;20933;-61
2021/07/15 06:59:17;;;;;;;5.00;2.75;;;;;;;46.13;19.25;100213.58;1741955;81;21098;-68
2021/07/15 07:01:44;;;;;;;3.45;2.45;;;;;;;46.06;18.38;100211.75;1742844;81;20929;-66
2021/07/15 07:04:10;;;;;;;4.20;2.72;;;;;;;46.32;18.86;100215.52;1758759;80;20971;-66
2021/07/15 07:06:37;;;;;;;5.87;2.85;;;;;;;45.70;17.76;100214.47;1735836;82;21547;-62
2021/07/15 07:09:04;;;;;;;3.17;2.65;;;;;;;45.57;17.93;100215.09;1728869;81;20986;-62
2021/07/15 07:11:30;;;;;;;4.97;2.75;;;;;;;45.18;18.87;100217.80;1760435;80;21141;-66
2021/07/15 07:13:57;;;;;;;3.87;2.27;;;;;;;45.35;17.86;100206.47;1758891;80;21027;-65
2021/07/15 07:16:24;;;;;;;3.45;2.50;;;;;;;46.76;15.67;100205.05;1757144;80;21019;-67
2021/07/15 07:18:50;;;;;;;3.95;2.08;;;;;;;46.87;15.66;100202.80;1731744;82;20966;-66
2021/07/15 07:21:17;;;;;;;2.35;1.98;;;;;;;46.26;15.06;100206.20;1725057;82;21074;-65
2021/07/15 07:23:44;;;;;;;3.98;1.95;;;;;;;45.83;15.62;100200.24;1747007;81;22453;-63
2021/07/15 07:26:11;;;;;;;3.35;2.00;;;;;;;45.51;16.58;100207.16;1691334;83;21066;-64
2021/07/15 07:28:38;;;;;;;5.03;1.90;;;;;;;45.35;16.43;100200.16;1740563;82;21003;-62
2021/07/15 07:31:05;;;;;;;4.15;2.08;;;;;;;45.43;16.83;100206.33;1736458;82;20921;-66
2021/07/15 07:33:32;;;;;;;1.95;1.55;;;;;;;45.38;17.00;100197.34;1762416;80;21049;-63
2021/07/15 07:36:00;;;;;;;2.58;1.95;;;;;;;45.41;17.17;100195.73;1739932;81;21162;-65
2021/07/15 07:38:27;;;;;;;2.40;1.75;;;;;;;45.17;17.07;100200.52;1753326;80;21619;-65
2021/07/15 07:40:55;;;;;;;3.70;2.90;;;;;;;44.78;17.93;100202.53;1741558;81;20995;-60
2021/07/15 07:43:22;;;;;;;3.40;1.80;;;;;;;44.37;17.80;100198.06;1757628;79;21098;-60
2021/07/15 07:45:49;;;;;;;3.08;1.45;;;;;;;44.56;17.91;100195.22;1756345;80;20993;-66
2021/07/15 07:48:16;;;;;;;3.40;1.80;;;;;;;44.75;17.70;100200.04;1725639;81;21155;-66
2021/07/15 07:50:42;;;;;;;3.02;1.60;;;;;;;44.53;17.17;100197.42;1756187;80;21515;-64
2021/07/15 07:53:09;;;;;;;3.37;1.22;;;;;;;44.44;17.49;100197.96;1755660;80;21073;-65
2021/07/15 07:55:36;;;;;;;3.60;1.62;;;;;;;44.61;17.11;100194.13;1759688;80;21055;-61
2021/07/15 07:58:03;;;;;;;4.70;1.80;;;;;;;44.69;16.99;100194.05;1760253;80;20989;-64
2021/07/15 08:00:30;;;;;;;8.60;1.92;;;;;;;43.69;18.35;100201.06;1740847;82;21213;-65
2021/07/15 08:02:57;;;;;;;2.40;1.30;;;;;;;44.14;18.28;100194.64;1760811;80;21608;-59
2021/07/15 08:05:25;;;;;;;2.83;1.45;;;;;;;44.01;17.02;100189.52;1738462;81;20999;-67
2021/07/15 08:07:52;;;;;;;3.10;1.60;;;;;;;44.32;16.06;100188.89;1756570;80;21003;-59
2021/07/15 08:10:19;;;;;;;2.95;1.37;;;;;;;44.11;16.34;100189.37;1757722;80;21080;-65
2021/07/15 08:12:46;;;;;;;3.25;1.45;;;;;;;43.92;17.29;100183.16;1737999;82;21653;-63
2021/07/15 08:15:14;;;;;;;3.40;1.62;;;;;;;43.73;17.21;100190.05;1729696;80;21068;-60
2021/07/15 08:17:41;;;;;;;2.45;1.40;;;;;;;42.83;17.72;100188.76;1723432;81;21603;-60
2021/07/15 08:20:10;;;;;;;3.08;1.60;;;;;;;42.82;18.24;100191.31;1715913;82;20950;-65
2021/07/15 08:22:40;;;;;;;3.15;1.50;;;;;;;42.56;17.60;100191.89;1732674;81;21049;-66
2021/07/15 08:25:09;;;;;;;2.60;1.50;;;;;;;42.52;17.83;100180.95;1756408;80;21950;-60
2021/07/15 08:27:35;;;;;;;3.17;1.37;;;;;;;41.43;18.26;100183.77;1738517;81;21390;-66
2021/07/15 08:30:06;;;;;;;4.42;1.60;;;;;;;41.42;18.39;100183.59;1757065;80;20998;-60
2021/07/15 08:32:32;;;;;;;3.62;1.45;;;;;;;42.01;18.90;100175.55;1759446;80;21097;-66
2021/07/15 08:34:59;;;;;;;4.00;1.57;;;;;;;42.23;19.17;100176.98;1757232;81;20964;-64
2021/07/15 08:37:25;;;;;;;3.20;1.40;;;;;;;42.58;18.34;100173.84;1760136;80;21764;-68
2021/07/15 08:39:52;;;;;;;3.60;1.70;;;;;;;42.88;18.35;100169.11;1697810;83;21049;-67
2021/07/15 08:42:20;;;;;;;2.45;1.75;;;;;;;42.41;18.57;100182.39;1748750;80;21144;-65
2021/07/15 08:44:47;;;;;;;6.60;1.72;;;;;;;42.69;18.15;100171.05;1756809;80;20995;-67
2021/07/15 08:47:15;;;;;;;3.42;1.40;;;;;;;42.37;18.10;100169.91;1751121;79;21003;-66
2021/07/15 08:49:42;;;;;;;5.10;1.72;;;;;;;42.09;18.69;100171.62;1737078;82;21045;-66
2021/07/15 08:52:08;;;;;;;3.75;1.40;;;;;;;42.03;18.84;100171.84;1756468;80;20966;-65
2021/07/15 08:54:53;;;;;;;2.33;1.30;;;;;;;42.28;18.28;100165.66;1757989;80;22183;-66
2021/07/15 08:57:06;;;;;;;3.15;1.75;;;;;;;42.73;16.75;100160.23;1765632;80;21265;-62
2021/07/15 08:59:33;;;;;;;5.00;1.50;;;;;;;43.14;16.62;100158.13;1736527;80;21128;-66
2021/07/15 09:02:01;;;;;;;5.42;2.10;;;;;;;43.68;15.95;100161.66;1719777;81;21176;-65
2021/07/15 09:04:27;;;;;;;4.78;1.50;;;;;;;44.30;16.94;100152.22;1697735;83;21051;-66
2021/07/15 09:06:53;;;;;;;3.22;1.45;;;;;;;44.56;15.89;100153.98;1677365;84;21052;-61
2021/07/15 09:09:21;;;;;;;3.92;2.02;;;;;;;44.39;15.76;100144.81;1691219;84;21594;-64
2021/07/15 09:11:48;;;;;;;2.98;1.70;;;;;;;44.23;15.32;100155.05;1693550;83;21501;-66
2021/07/15 09:14:18;;;;;;;2.83;1.72;;;;;;;43.90;16.22;100164.93;1748342;80;21122;-64
2021/07/15 09:16:56;;;;;;;2.83;1.72;;;;;;;43.27;16.99;100150.17;1749223;81;21068;-65
2021/07/15 09:19:25;;;;;;;3.20;1.70;;;;;;;42.86;17.56;100146.82;1751607;81;21489;-64
2021/07/15 09:21:53;;;;;;;2.90;1.40;;;;;;;42.68;17.95;100140.72;1750895;80;20936;-67
2021/07/15 09:24:30;;;;;;;3.02;1.40;;;;;;;43.18;17.02;100145.74;1756812;80;20972;-67
2021/07/15 09:27:01;;;;;;;2.65;1.45;;;;;;;43.72;17.13;100143.16;1750811;81;20935;-64
2021/07/15 09:29:28;;;;;;;4.53;1.77;;;;;;;44.09;15.74;100138.17;1750946;81;22013;-64
2021/07/15 09:31:58;;;;;;;3.20;1.20;;;;;;;44.37;15.77;100133.48;1751209;81;22335;-68
2021/07/15 09:34:31;;;;;;;1.72;1.32;;;;;;;44.68;15.51;100130.64;1708487;83;21091;-67
2021/07/15 09:37:15;;;;;;;4.95;1.55;;;;;;;44.81;16.06;100126.07;1711136;83;20994;-69
2021/07/15 09:39:45;;;;;;;3.08;1.50;;;;;;;45.06;15.48;100126.42;1690497;83;21086;-69
2021/07/15 09:42:20;;;;;;;3.30;2.00;;;;;;;45.44;14.85;100125.33;1712463;83;20929;-67
2021/07/15 09:44:52;;;;;;;3.95;1.60;;;;;;;45.96;14.74;100130.12;1712475;83;21509;-67
2021/07/15 09:47:39;;;;;;;10.48;3.02;;;;;;;46.28;13.92;100132.91;1711411;83;21091;-67
2021/07/15 09:50:22;;;;;;;3.65;1.45;;;;;;;46.29;14.01;100128.95;1700819;83;21006;-63
2021/07/15 09:52:51;;;;;;;2.77;1.52;;;;;;;46.42;13.80;100124.13;1712703;82;21190;-68
2021/07/15 09:55:22;;;;;;;4.30;1.47;;;;;;;46.50;14.19;100119.38;1712315;83;21015;-67
2021/07/15 09:58:07;;;;;;;3.12;1.50;;;;;;;46.32;13.87;100120.42;1711722;83;21049;-62
2021/07/15 10:00:42;;;;;;;2.60;1.75;;;;;;;45.96;14.39;100125.39;1710799;83;21039;-65
2021/07/15 10:03:13;;;;;;;3.15;1.60;;;;;;;46.04;14.43;100124.02;1706269;83;21070;-68
2021/07/15 10:05:54;;;;;;;2.77;1.40;;;;;;;46.08;14.14;100121.18;1706731;83;20923;-65
2021/07/15 10:08:29;;;;;;;3.75;1.40;;;;;;;45.99;13.96;100112.11;1690913;83;21655;-67
2021/07/15 10:11:18;;;;;;;2.47;1.62;;;;;;;46.04;14.09;100110.84;1670214;85;21556;-68
2021/07/15 10:14:07;;;;;;;4.95;1.77;;;;;;;46.01;14.45;100111.70;1688434;84;22363;-67
2021/07/15 10:16:38;;;;;;;5.28;2.12;;;;;;;46.07;14.17;100106.62;1716930;82;21547;-67
2021/07/15 10:19:09;;;;;;;2.65;1.60;;;;;;;46.15;14.31;100107.84;1738789;82;21783;-62
2021/07/15 10:21:36;;;;;;;5.95;2.30;;;;;;;46.29;14.04;100111.63;1688283;83;21026;-67
2021/07/15 10:24:21;;;;;;;4.83;1.50;;;;;;;46.28;13.82;100106.73;1687591;84;21037;-67
2021/07/15 10:26:50;;;;;;;3.58;1.47;;;;;;;45.98;14.54;100112.55;1686312;84;21054;-64
2021/07/15 10:29:18;;;;;;;11.68;2.92;;;;;;;45.71;14.21;100106.62;1680965;83;20966;-65
2021/07/15 10:31:48;;;;;;;4.45;1.40;;;;;;;45.74;14.34;100103.63;1712132;82;21029;-65
2021/07/15 10:34:15;;;;;;;9.38;2.70;;;;;;;45.92;14.81;100104.04;1712943;82;20997;-68
2021/07/15 10:36:42;;;;;;;3.20;1.70;;;;;;;46.07;14.42;100099.73;1718657;80;20978;-67
2021/07/15 10:39:11;;;;;;;3.87;1.62;;;;;;;46.09;14.18;100098.69;1718219;82;21002;-68
2021/07/15 10:41:38;;;;;;;2.22;1.17;;;;;;;45.99;14.11;100096.19;1703057;82;21102;-64
2021/07/15 10:44:06;;;;;;;3.22;1.55;;;;;;;45.89;14.41;100086.98;1687992;83;21142;-68
2021/07/15 10:46:34;;;;;;;3.72;1.37;;;;;;;45.74;14.81;100087.88;1688500;82;21569;-62
2021/07/15 10:49:01;;;;;;;2.42;1.57;;;;;;;45.62;14.68;100085.20;1692727;83;21477;-68
2021/07/15 10:51:27;;;;;;;5.60;1.57;;;;;;;45.33;15.14;100087.75;1683348;84;21607;-71
2021/07/15 10:53:54;;;;;;;3.42;1.42;;;;;;;45.14;15.29;100090.69;1687236;83;21544;-71
2021/07/15 10:56:23;;;;;;;3.10;1.27;;;;;;;45.22;14.55;100079.54;1687847;83;22288;-69
2021/07/15 10:58:53;;;;;;;2.35;1.40;;;;;;;45.34;14.37;100074.16;1675423;84;21540;-62
2021/07/15 11:01:41;;;;;;;2.83;1.20;;;;;;;45.47;14.14;100083.19;1676523;85;21545;-68
2021/07/15 11:04:16;;;;;;;4.08;1.92;;;;;;;45.62;13.57;100081.06;1712214;83;21028;-67
2021/07/15 11:06:48;;;;;;;3.10;1.80;;;;;;;45.71;13.86;100076.95;1688481;84;21027;-68
2021/07/15 11:09:27;;;;;;;2.72;1.50;;;;;;;45.76;13.60;100073.06;1689927;83;21639;-67
2021/07/15 11:11:53;;;;;;;3.62;1.32;;;;;;;45.73;13.73;100075.32;1674789;84;20947;-67
2021/07/15 11:14:44;;;;;;;4.53;1.55;;;;;;;45.62;13.38;100069.28;1664338;84;21012;-62
2021/07/15 11:17:35;;;;;;;2.60;1.50;;;;;;;45.60;13.53;100065.56;1700085;83;21005;-66
2021/07/15 11:20:11;;;;;;;3.00;1.50;;;;;;;45.45;13.36;100061.58;1701908;83;21596;-68
2021/07/15 11:22:47;;;;;;;2.98;1.60;;;;;;;45.20;14.07;100059.91;1708710;83;20936;-67
2021/07/15 11:25:35;;;;;;;6.72;1.55;;;;;;;44.70;14.26;100060.27;1711226;82;20974;-61
2021/07/15 11:28:12;;;;;;;2.50;1.72;;;;;;;44.16;14.63;100059.77;1719387;83;21555;-67
2021/07/15 11:30:48;;;;;;;2.40;1.40;;;;;;;43.92;14.81;100062.33;1723754;82;20915;-66
2021/07/15 11:33:22;;;;;;;3.42;1.30;;;;;;;43.92;15.21;100063.70;1724978;82;21057;-64
2021/07/15 11:35:52;;;;;;;3.15;1.37;;;;;;;43.80;14.58;100053.27;1715479;81;21430;-66